Home   Weather   Moscow Canyon   Past weeks
Flag for USA

Past Weather in Moscow Canyon, California, USA — Yesterday and Last 2 Weeks

Currently: 82 °F. Clear. (Weather station: Edwards, Edwards Air Force Auxiliary North Base, USA). See more current weather

Past Weather in Moscow Canyon — Graph

°F

Moscow Canyon Temperature Yesterday

Maximum temperature yesterday: 106 °F (at 1:40 pm)
Minimum temperature yesterday: 69 °F (at 4:55 am)
Average temperature yesterday: 92 °F

High & Low Weather Summary for the Past Weeks

 TemperatureHumidityPressure
High108 °F (Jun 22, 4:10 pm)56% (Jun 10, 5:55 am)29.95 "Hg (Jun 10, 5:55 am)
Low52 °F (Jun 19, 5:55 am)5% (Jun 18, 11:55 am)29.56 "Hg (Jun 17, 4:55 pm)
Average83 °F22%29.76 "Hg
* Reported Jun 9 1:55 am — Jun 24 1:55 am, Moscow Canyon. Weather by CustomWeather, © 2024

Note: Actual official high and low records may vary slightly from our data, if they occured in-between our weather recording intervals... More about our weather records

Moscow Canyon Weather History for the Previous 24 Hours

Scroll right to see more
 ConditionsComfort  
Time TempWeatherWind HumidityBarometerVisibility
1:55 am
Mon, Jun 24
80 °FClear.13 mph27%29.81 "Hg10 mi
12:55 am81 °FClear.12 mph25%29.83 "Hg9 mi
11:55 pm
Sun, Jun 23
82 °FClear.10 mph28%29.83 "Hg10 mi
10:55 pm84 °FClear.13 mph27%29.83 "Hg10 mi
9:55 pm86 °FClear.7 mph26%29.82 "Hg9 mi
8:55 pm90 °FClear.10 mph24%29.80 "Hg9 mi
7:55 pm96 °FSunny.12 mph21%29.78 "Hg7 mi
6:55 pm101 °FSunny.16 mph21%29.76 "Hg7 mi
5:55 pm102 °FSunny.16 mph22%29.76 "Hg7 mi
5:13 pm104 °FSunny.18 mph20%29.76 "Hg7 mi
4:55 pm103 °FSunny.23 mph21%29.76 "Hg7 mi
3:55 pm105 °FSunny.20 mph19%29.75 "Hg8 mi
2:55 pm105 °FSunny.15 mph19%29.76 "Hg9 mi
1:55 pm106 °FPassing clouds.10 mph19%29.78 "Hg7 mi
1:40 pm106 °FPassing clouds.16 mph19%29.80 "Hg7 mi
12:55 pm103 °FPassing clouds.14 mph19%29.80 "Hg7 mi
12:25 pm104 °FSunny.7 mph16%29.82 "Hg7 mi
12:10 pm102 °FSunny.8 mph17%29.83 "Hg6 mi
11:55 am102 °FSunny.8 mph16%29.83 "Hg7 mi
10:55 am99 °FSunny.10 mph18%29.85 "Hg8 mi
9:55 am96 °FSunny.7 mph12%29.86 "Hg8 mi
8:55 am88 °FSunny.6 mph14%29.88 "Hg9 mi
7:55 am82 °FSunny.5 mph17%29.88 "Hg10 mi
6:55 am74 °FSunny.5 mph22%29.86 "Hg10 mi
5:55 am71 °FSunny.10 mph25%29.85 "Hg10 mi
4:55 am69 °FClear.6 mph26%29.86 "Hg10 mi
3:55 am77 °FClear.5 mph18%29.85 "Hg10 mi
Weather by CustomWeather, © 2024

See weather overview